»·PEaware :: N229D KVNY-KSBA

N229D :: KVNY-KSBA

FLIGHT INFORMATION

Flight Status: Arrived
Operator: Privately registered:
United States
More flights under this callsign
Pilot: Austin M. (5128)
Aircraft: MCDONNELL-DOUGLAS DC-6/B LIFTMASTER
(DC6)
More flights by this aircraft type
Origin: KVNY Van Nuys
United States
Destination: KSBA Santa Barbara Mun
United States
More flights between these airports :: More routes between these airports
Route: CANOG2 FIM V186 DEANO V27 KWANG
File this flight plan on PilotEdge
Remarks:
Altitude:
(Current/Filed)
60ft
Speed:
(Current/Filed)
220kts
Departed: 15-Apr-17 12:59 PM
Arrived: 15-Apr-17 01:29 PM
Distance/Time
Traveled:
68nm/0:30
Distance/Time
To Go:
Arrived

Flight Plot

Page will automatically refresh every two minutes.


Map Options




Map Legend


Flown Route
Filed Route
Departure Airport
Arrival Airport
Navaid (VOR, NDB)
Fix

Horizontal Profiles

Position Reports

Time Latitude Longitude Heading Altitude Ground
Speed
15-Apr-17 12:36 34.211327 -118.492035 88 789ft 0kts
15-Apr-17 12:37 34.211327 -118.492035 88 789ft 0kts
15-Apr-17 12:38 34.211327 -118.492035 88 789ft 0kts
15-Apr-17 12:39 34.211327 -118.492035 88 789ft 0kts
15-Apr-17 12:40 34.211327 -118.492035 88 789ft 0kts
15-Apr-17 12:41 34.211327 -118.492035 88 789ft 0kts
15-Apr-17 12:42 34.211327 -118.492035 88 789ft 0kts
15-Apr-17 12:43 34.211327 -118.492035 88 789ft 0kts
15-Apr-17 12:44 34.211327 -118.492035 88 789ft 0kts
15-Apr-17 12:45 34.211327 -118.492035 88 789ft 0kts
15-Apr-17 12:46 34.211327 -118.492035 88 789ft 0kts
15-Apr-17 12:47 34.211891 -118.491890 5 790ft 9kts
15-Apr-17 12:48 34.217572 -118.492318 355 802ft 21kts
15-Apr-17 12:49 34.218758 -118.491981 80 804ft 0kts
15-Apr-17 12:50 34.218758 -118.491981 80 804ft 0kts
15-Apr-17 12:51 34.218758 -118.491981 80 804ft 0kts
15-Apr-17 12:52 34.218758 -118.491981 80 804ft 0kts
15-Apr-17 12:53 34.218758 -118.491981 80 804ft 0kts
15-Apr-17 12:54 34.218758 -118.491981 80 804ft 0kts
15-Apr-17 12:55 34.218758 -118.491981 80 804ft 0kts
15-Apr-17 12:56 34.218758 -118.491981 80 804ft 0kts
15-Apr-17 12:57 34.218758 -118.491981 80 804ft 0kts
15-Apr-17 12:58 34.218474 -118.491205 159 803ft 2kts
15-Apr-17 12:59 34.217442 -118.490966 174 801ft 0kts
15-Apr-17 13:00 34.194607 -118.489357 182 921ft 139kts
15-Apr-17 13:01 34.154657 -118.488267 208 1099ft 160kts
15-Apr-17 13:02 34.164704 -118.519871 319 1515ft 158kts
15-Apr-17 13:03 34.154606 -118.565989 245 2076ft 148kts
15-Apr-17 13:04 34.171876 -118.613359 317 2038ft 176kts
15-Apr-17 13:05 34.210680 -118.607222 65 2567ft 157kts
15-Apr-17 13:06 34.216251 -118.558641 89 2942ft 158kts
15-Apr-17 13:07 34.221046 -118.510840 79 3458ft 149kts
15-Apr-17 13:08 34.204473 -118.474584 169 3846ft 156kts
15-Apr-17 13:09 34.167023 -118.490250 237 4107ft 159kts
15-Apr-17 13:10 34.162104 -118.536967 272 4718ft 144kts
15-Apr-17 13:11 34.166276 -118.588669 272 4940ft 157kts
15-Apr-17 13:12 34.170861 -118.640243 272 5362ft 152kts
15-Apr-17 13:13 34.175374 -118.692284 272 6082ft 170kts
15-Apr-17 13:14 34.179660 -118.755686 272 6062ft 204kts
15-Apr-17 13:15 34.183722 -118.826069 272 6061ft 217kts
15-Apr-17 13:16 34.200665 -118.897101 280 6055ft 224kts
15-Apr-17 13:17 34.213621 -118.970871 280 6058ft 227kts
15-Apr-17 13:18 34.226829 -119.045648 280 6057ft 229kts
15-Apr-17 13:19 34.239944 -119.119557 280 6058ft 229kts
15-Apr-17 13:20 34.253439 -119.194705 280 6058ft 229kts
15-Apr-17 13:21 34.266689 -119.269809 280 6058ft 229kts
15-Apr-17 13:22 34.279777 -119.344992 280 5946ft 232kts
15-Apr-17 13:23 34.292857 -119.420199 280 5298ft 229kts
15-Apr-17 13:24 34.305928 -119.495616 280 4592ft 229kts
15-Apr-17 13:25 34.328322 -119.567470 291 3889ft 230kts
15-Apr-17 13:26 34.353609 -119.638214 292 3198ft 229kts
15-Apr-17 13:27 34.377642 -119.705487 291 3074ft 207kts
15-Apr-17 13:28 34.411241 -119.758651 321 2679ft 180kts
15-Apr-17 13:29 34.428473 -119.807532 267 807ft 157kts
15-Apr-17 13:30 34.427769 -119.845831 307 16ft 12kts

Navigation Log

Ident Type
Flight plan parsing failed, navigation log unavailable